Terminal Aerodrome Forecast
Issued by NWS

Current Version | Previous Version | Text Only | Print | Product List | Glossary On
Versions: 1 2 3 4 5 6 7 8 9 10 11 12 13 14 15 16 17 18 19 20 21 22 23
000
FTUS41 KGYX 230520
TAFAUG
TAF
KAUG 230520Z 2306/2406 VRB02KT P6SM SCT250
     FM231200 18004KT P6SM FEW060 BKN100
     FM231800 18007G14KT P6SM SCT015 BKN050 PROB30 2320/2324 3SM
      -TSRA OVC015CB
     FM240100 19010KT 4SM BR OVC007=

USA.gov is the U.S. government's official web portal to all federal, state and local government web resources and services.